Atlantic Horizon — C6XI2 — position and weather

sailwx.info

Track history (hours):
 
Tides and Currents Weather Stations Pressure Air Temp Water Temp Dewpoint Dewpoint Depression Visibility Wind Speed Wind Dir Waves Ship Positions

Atlantic Horizon

Last reported at 2015-Mar-18 07:17 UTC. Time now 2015-Mar-26 22:30 UTC.
Position N 48°17' W 125°23'.
Warning: this ship's position is 8 days out of date.

Length 225 m; draft 14 m.

Type: Cargo ship. MMSI: 311010300.

Date/timePositionNaut miles runAvg speedWind from/ knotsBaromVisibWave heightAir tempDewpointWater temp
2015-Mar-18 07:17N 48°17' W 125°23'810.4
2015-Mar-18 06:32N 48°22' W 125°14'1110.3
2015-Mar-18 05:30N 48°29' W 125°02'1010.3
2015-Mar-18 04:33N 48°31' W 124°48'1211.7
2015-Mar-18 03:33N 48°27' W 124°31'1312.9
2015-Mar-18 02:33N 48°22' W 124°13'1313.1
2015-Mar-18 01:33N 48°17' W 123°55'1313.1
2015-Mar-18 00:33N 48°16' W 123°35'1111.1
2015-Mar-17 23:33N 48°23' W 123°23'9 9.1
2015-Mar-17 22:33N 48°29' W 123°13'1212.1
2015-Mar-17 21:33N 48°41' W 123°15'1110.8
2015-Mar-17 20:33N 48°47' W 123°02'1110.6
2015-Mar-17 19:33N 48°57' W 123°06'4 3.9
2015-Mar-17 18:30N 49°01' W 123°09'0 0.0
2015-Mar-17 17:33N 49°01' W 123°09'0 0.0
2015-Mar-17 16:27N 49°01' W 123°09'0 0.0
2015-Mar-17 15:33N 49°01' W 123°09'0 0.0
2015-Mar-17 14:33N 49°01' W 123°09'0 0.0
2015-Mar-17 13:33N 49°01' W 123°09'0 0.0
2015-Mar-17 12:33N 49°01' W 123°09'0 0.0
2015-Mar-17 11:30N 49°01' W 123°09'0 0.0
2015-Mar-17 10:33N 49°01' W 123°09'0 0.0
2015-Mar-17 09:33N 49°01' W 123°09'0 0.0
2015-Mar-17 08:33N 49°01' W 123°09'0 0.0
2015-Mar-17 07:30N 49°01' W 123°09'0 0.0
2015-Mar-17 06:33N 49°01' W 123°09'0 0.0
2015-Mar-17 05:30N 49°01' W 123°09'0 0.0
2015-Mar-17 04:33N 49°01' W 123°09'0 0.0
2015-Mar-17 03:30N 49°01' W 123°09'0 0.0
2015-Mar-17 02:30N 49°01' W 123°09'0 0.0
2015-Mar-17 01:27N 49°01' W 123°09'0 0.0
2015-Mar-17 00:33N 49°01' W 123°09'0 0.0
2015-Mar-16 23:33N 49°01' W 123°09'0 0.0
2015-Mar-16 22:33N 49°01' W 123°09'0 0.0
2015-Mar-16 21:33N 49°01' W 123°09'0 0.0
2015-Mar-16 20:33N 49°01' W 123°09'0 0.0
2015-Mar-16 19:33N 49°01' W 123°09'0 0.0
2015-Mar-16 18:33N 49°01' W 123°09'0 0.0
2015-Mar-16 17:33N 49°01' W 123°09'0 0.0
2015-Mar-16 16:30N 49°01' W 123°09'0 0.0
2015-Mar-16 15:33N 49°01' W 123°09'0 0.0
2015-Mar-16 14:33N 49°01' W 123°09'0 0.0
2015-Mar-16 13:33N 49°01' W 123°09'0 0.0
2015-Mar-16 12:33N 49°01' W 123°09'0 0.0
2015-Mar-16 11:33N 49°01' W 123°09'0 0.0
2015-Mar-16 10:33N 49°01' W 123°09'0 0.0
2015-Mar-16 09:33N 49°01' W 123°09'0 0.0
2015-Mar-16 08:33N 49°01' W 123°09'0 0.0
2015-Mar-16 07:33N 49°01' W 123°09'0 0.0
2015-Mar-16 06:33N 49°01' W 123°09'0 0.0
2015-Mar-16 05:33N 49°01' W 123°09'0 0.0
2015-Mar-16 04:33N 49°01' W 123°09'2 2.3
2015-Mar-16 03:33N 49°00' W 123°13'1010.3
2015-Mar-16 02:34N 49°08' W 123°23'1212.4
2015-Mar-16 01:33N 49°19' W 123°14'7 6.6
2015-Mar-16 00:33N 49°18' W 123°04'0 0.1
2015-Mar-15 23:33N 49°18' W 123°04'0 0.2
2015-Mar-15 22:33N 49°18' W 123°04'0 0.1
2015-Mar-15 21:33N 49°18' W 123°04'0 0.0
2015-Mar-15 20:33N 49°18' W 123°04'0 0.0
2015-Mar-15 19:33N 49°18' W 123°04'0 0.0
2015-Mar-15 18:33N 49°18' W 123°04'0 0.1
2015-Mar-15 17:33N 49°18' W 123°04'0 0.1
2015-Mar-15 16:33N 49°18' W 123°04'0 0.1
2015-Mar-15 15:33N 49°18' W 123°04'0 0.0
2015-Mar-15 14:33N 49°18' W 123°04'0 0.0
2015-Mar-15 13:33N 49°18' W 123°04'0 0.0
2015-Mar-15 12:33N 49°18' W 123°04'0 0.1
2015-Mar-15 11:33N 49°18' W 123°04'0 0.2
2015-Mar-15 10:33N 49°18' W 123°04'0 0.0
2015-Mar-15 09:33N 49°18' W 123°04'0 0.0
2015-Mar-15 08:33N 49°18' W 123°04'0 0.0
2015-Mar-15 07:33N 49°18' W 123°04'0 0.1
2015-Mar-15 06:33N 49°18' W 123°04'0 0.1
2015-Mar-15 05:33N 49°18' W 123°04'0 0.0
2015-Mar-15 04:33N 49°18' W 123°04'0 0.2
2015-Mar-15 03:33N 49°18' W 123°04'0 0.0
2015-Mar-15 02:33N 49°18' W 123°04'0 0.0
2015-Mar-15 01:33N 49°18' W 123°04'0 0.0
2015-Mar-15 00:33N 49°18' W 123°04'0 0.0
2015-Mar-14 23:33N 49°18' W 123°04'0 0.1
2015-Mar-14 22:33N 49°18' W 123°04'0 0.1
2015-Mar-14 21:33N 49°18' W 123°04'0 0.1
2015-Mar-14 20:33N 49°18' W 123°04'0 0.1
2015-Mar-14 19:33N 49°18' W 123°04'0 0.1
2015-Mar-14 18:33N 49°18' W 123°04'4 4.0
2015-Mar-14 17:33N 49°19' W 123°10'1212.1
2015-Mar-14 16:33N 49°18' W 123°29'1313.0
2015-Mar-14 15:33N 49°15' W 123°48'5 5.4
2015-Mar-14 14:33N 49°11' W 123°54'0 0.0
2015-Mar-14 13:33N 49°11' W 123°54'0 0.0
2015-Mar-14 12:33N 49°11' W 123°54'0 0.0
2015-Mar-14 11:30N 49°11' W 123°54'0 0.0
2015-Mar-14 10:30N 49°11' W 123°54'0 0.0
2015-Mar-14 09:33N 49°11' W 123°54'0 0.1
2015-Mar-14 08:33N 49°11' W 123°54'0 0.0
2015-Mar-14 07:33N 49°11' W 123°54'0 0.0
2015-Mar-14 06:33N 49°11' W 123°54'0 0.0
2015-Mar-14 05:33N 49°11' W 123°54'0 0.0
2015-Mar-14 04:33N 49°11' W 123°54'0 0.0
2015-Mar-14 03:30N 49°11' W 123°54'0 0.0
2015-Mar-14 02:33N 49°11' W 123°54'0 0.0
2015-Mar-14 01:33N 49°11' W 123°54'0 0.0
2015-Mar-14 00:33N 49°11' W 123°54'0 0.0
2015-Mar-13 23:33N 49°11' W 123°54'0 0.0
2015-Mar-13 22:27N 49°11' W 123°54'0 0.1
2015-Mar-13 21:30N 49°11' W 123°54'0 0.0
2015-Mar-13 20:33N 49°11' W 123°54'0 0.0
2015-Mar-13 19:33N 49°11' W 123°54'0 0.0
2015-Mar-13 18:33N 49°11' W 123°54'0 0.0
2015-Mar-13 17:33N 49°11' W 123°54'0 0.1
2015-Mar-13 16:30N 49°11' W 123°54'0 0.0
2015-Mar-13 15:30N 49°11' W 123°54'0 0.1
2015-Mar-13 14:33N 49°11' W 123°54'0 0.0
2015-Mar-13 13:30N 49°11' W 123°54'0 0.1
2015-Mar-13 12:30N 49°11' W 123°54'0 0.0
2015-Mar-13 11:30N 49°11' W 123°54'0 0.0
2015-Mar-13 10:33N 49°11' W 123°54'0 0.0
2015-Mar-13 09:30N 49°11' W 123°54'0 0.0
2015-Mar-13 08:30N 49°11' W 123°54'0 0.0
2015-Mar-13 07:33N 49°11' W 123°54'0 0.0
2015-Mar-13 06:33N 49°11' W 123°54'0 0.0
2015-Mar-13 05:30N 49°11' W 123°54'0 0.0
2015-Mar-13 04:33N 49°11' W 123°54'0 0.0
2015-Mar-13 03:33N 49°11' W 123°54'0 0.0
2015-Mar-13 02:33N 49°11' W 123°54'0 0.1
2015-Mar-13 01:30N 49°11' W 123°54'0 0.0
2015-Mar-13 00:33N 49°11' W 123°54'0 0.0
2015-Mar-12 23:33N 49°11' W 123°54'0 0.0
2015-Mar-12 22:33N 49°11' W 123°54'0 0.0
2015-Mar-12 21:30N 49°11' W 123°54'0 0.0
2015-Mar-12 20:33N 49°11' W 123°54'0 0.0
2015-Mar-12 19:33N 49°11' W 123°54'0 0.0
2015-Mar-12 18:33N 49°11' W 123°54'0 0.0
2015-Mar-12 17:33N 49°11' W 123°54'0 0.0
2015-Mar-12 16:33N 49°11' W 123°54'0 0.0
2015-Mar-12 15:33N 49°11' W 123°54'0 0.0
2015-Mar-12 14:33N 49°11' W 123°54'0 0.0
2015-Mar-12 13:33N 49°11' W 123°54'0 0.0
2015-Mar-12 12:33N 49°11' W 123°54'0 0.0
2015-Mar-12 11:30N 49°11' W 123°54'0 0.0
2015-Mar-12 10:33N 49°11' W 123°54'0 0.0
2015-Mar-12 09:30N 49°11' W 123°54'0 0.0
2015-Mar-12 08:33N 49°11' W 123°54'0 0.0
2015-Mar-12 07:33N 49°11' W 123°54'0 0.0
2015-Mar-12 06:33N 49°11' W 123°54'0 0.0
2015-Mar-12 05:33N 49°11' W 123°54'0 0.0
2015-Mar-12 04:33N 49°11' W 123°54'0 0.0
2015-Mar-12 03:33N 49°11' W 123°54'0 0.0
2015-Mar-12 02:30N 49°11' W 123°54'0 0.0
2015-Mar-12 01:33N 49°11' W 123°54'0 0.0
2015-Mar-12 00:33N 49°11' W 123°54'0 0.0
2015-Mar-11 23:33N 49°11' W 123°54'0 0.0
2015-Mar-11 22:30N 49°11' W 123°54'0 0.0
2015-Mar-11 21:30N 49°11' W 123°54'0 0.0
2015-Mar-11 20:30N 49°11' W 123°54'0 0.0
2015-Mar-11 19:33N 49°11' W 123°54'0 0.0
2015-Mar-11 18:33N 49°11' W 123°54'0 0.1
2015-Mar-11 17:33N 49°11' W 123°54'0 0.1
2015-Mar-11 16:30N 49°11' W 123°54'0 0.1
2015-Mar-11 15:15N 49°11' W 123°54'0 0.1
2015-Mar-11 14:33N 49°11' W 123°54'0 0.0
2015-Mar-11 13:30N 49°11' W 123°54'0 0.1
2015-Mar-11 12:33N 49°11' W 123°54'0 0.0
2015-Mar-11 11:33N 49°11' W 123°54'0 0.0
2015-Mar-11 10:33N 49°11' W 123°54'0 0.1
2015-Mar-11 09:33N 49°11' W 123°54'0 0.2
2015-Mar-11 08:33N 49°11' W 123°54'0 0.1
2015-Mar-11 07:27N 49°11' W 123°54'0 0.0
2015-Mar-11 06:33N 49°11' W 123°54'0 0.1
2015-Mar-11 05:30N 49°11' W 123°54'0 0.1
2015-Mar-11 04:27N 49°11' W 123°54'0 0.1
2015-Mar-11 03:30N 49°11' W 123°54'0 0.0
2015-Mar-11 02:33N 49°11' W 123°54'0 0.0
2015-Mar-11 01:30N 49°11' W 123°54'0 0.0
2015-Mar-11 00:33N 49°11' W 123°54'0 0.0
2015-Mar-10 23:33N 49°11' W 123°54'0 0.1
2015-Mar-10 22:21N 49°11' W 123°54'0 0.1
2015-Mar-10 21:33N 49°11' W 123°54'0 0.0
2015-Mar-10 20:33N 49°11' W 123°54'0 0.1
2015-Mar-10 19:24N 49°11' W 123°54'0 0.0
2015-Mar-10 18:33N 49°11' W 123°54'0 0.0
2015-Mar-10 17:24N 49°11' W 123°54'0 0.0
2015-Mar-10 16:30N 49°11' W 123°54'0 0.1
2015-Mar-10 15:24N 49°11' W 123°54'0 0.0
2015-Mar-10 14:33N 49°11' W 123°54'0 0.1
2015-Mar-10 13:30N 49°11' W 123°54'0 0.1
2015-Mar-10 12:33N 49°11' W 123°54'0 0.1
2015-Mar-10 11:33N 49°11' W 123°54'0 0.0
2015-Mar-10 10:33N 49°11' W 123°54'0 0.0
2015-Mar-10 09:30N 49°11' W 123°54'0 0.1
2015-Mar-10 08:33N 49°11' W 123°54'0 0.1
2015-Mar-10 07:33N 49°11' W 123°54'0 0.1
2015-Mar-10 06:33N 49°11' W 123°54'0 0.0
2015-Mar-10 05:33N 49°11' W 123°54'0 0.0
2015-Mar-10 04:33N 49°11' W 123°54'0 0.0
2015-Mar-10 03:30N 49°11' W 123°54'0 0.0
2015-Mar-10 02:33N 49°11' W 123°54'0 0.0
2015-Mar-10 01:33N 49°11' W 123°54'0 0.0
2015-Mar-10 00:33N 49°11' W 123°54'0 0.1
2015-Mar-09 23:33N 49°11' W 123°54'0 0.1
2015-Mar-09 22:30N 49°11' W 123°54'0 0.1
2015-Mar-09 21:33N 49°11' W 123°54'0 0.0
2015-Mar-09 20:30N 49°11' W 123°54'0 0.1
2015-Mar-09 19:33N 49°11' W 123°54'0 0.1
2015-Mar-09 18:33N 49°11' W 123°54'0 0.1
2015-Mar-09 17:15N 49°11' W 123°54'0 0.1
2015-Mar-09 16:27N 49°11' W 123°54'0 0.0
2015-Mar-09 15:30N 49°11' W 123°54'0 0.1
2015-Mar-09 14:33N 49°11' W 123°54'0 0.1
2015-Mar-09 13:33N 49°11' W 123°54'0 0.1
2015-Mar-09 12:33N 49°11' W 123°54'0 0.0
2015-Mar-09 11:33N 49°11' W 123°54'0 0.0
2015-Mar-09 10:30N 49°11' W 123°54'0 0.0
2015-Mar-09 09:33N 49°11' W 123°54'0 0.0
2015-Mar-09 08:33N 49°11' W 123°54'0 0.0
2015-Mar-09 07:33N 49°11' W 123°54'0 0.1
2015-Mar-09 06:33N 49°11' W 123°54'0 0.2
2015-Mar-09 05:33N 49°11' W 123°54'0 0.0
2015-Mar-09 04:33N 49°11' W 123°54'0 0.0
2015-Mar-09 03:30N 49°11' W 123°54'0 0.0
2015-Mar-09 02:30N 49°11' W 123°54'0 0.0
2015-Mar-09 01:33N 49°11' W 123°54'0 0.0
2015-Mar-09 00:24N 49°11' W 123°54'0 0.1
2015-Mar-08 23:33N 49°11' W 123°54'0 0.0
2015-Mar-08 22:33N 49°11' W 123°54'0 0.0
2015-Mar-08 21:33N 49°11' W 123°54'0 0.0
2015-Mar-08 20:33N 49°11' W 123°54'0 0.0
2015-Mar-08 19:30N 49°11' W 123°54'0 0.0
2015-Mar-08 18:33N 49°11' W 123°54'0 0.0
2015-Mar-08 17:24N 49°11' W 123°54'0 0.0
2015-Mar-08 16:30N 49°11' W 123°54'0 0.0
2015-Mar-08 15:33N 49°11' W 123°54'0 0.0
2015-Mar-08 14:30N 49°11' W 123°54'0 0.0
2015-Mar-08 13:33N 49°11' W 123°54'0 0.0
2015-Mar-08 12:30N 49°11' W 123°54'0 0.1
2015-Mar-08 11:33N 49°11' W 123°54'0 0.1
2015-Mar-08 10:24N 49°11' W 123°54'0 0.0
2015-Mar-08 09:33N 49°11' W 123°54'0 0.0
2015-Mar-08 08:33N 49°11' W 123°54'0 0.0
2015-Mar-08 07:33N 49°11' W 123°54'  
Track history (hours):
 
Tides and Currents Weather Stations Pressure Air Temp Water Temp Dewpoint Dewpoint Depression Visibility Wind Speed Wind Dir Waves Ship Positions

Atlantic Horizon

Last reported at 2015-Mar-18 07:17 UTC. Time now 2015-Mar-26 22:30 UTC.
Position N 48°17' W 125°23'.
Warning: this ship's position is 8 days out of date.

Length 225 m; draft 14 m.

Type: Cargo ship. MMSI: 311010300.

Date/timePositionNaut miles runAvg speedWind from/ knotsBaromVisibWave heightAir tempDewpointWater temp
2015-Mar-18 07:17N 48°17' W 125°23'810.4
2015-Mar-18 06:32N 48°22' W 125°14'1110.3
2015-Mar-18 05:30N 48°29' W 125°02'1010.3
2015-Mar-18 04:33N 48°31' W 124°48'1211.7
2015-Mar-18 03:33N 48°27' W 124°31'1312.9
2015-Mar-18 02:33N 48°22' W 124°13'1313.1
2015-Mar-18 01:33N 48°17' W 123°55'1313.1
2015-Mar-18 00:33N 48°16' W 123°35'1111.1
2015-Mar-17 23:33N 48°23' W 123°23'9 9.1
2015-Mar-17 22:33N 48°29' W 123°13'1212.1
2015-Mar-17 21:33N 48°41' W 123°15'1110.8
2015-Mar-17 20:33N 48°47' W 123°02'1110.6
2015-Mar-17 19:33N 48°57' W 123°06'4 3.9
2015-Mar-17 18:30N 49°01' W 123°09'0 0.0
2015-Mar-17 17:33N 49°01' W 123°09'0 0.0
2015-Mar-17 16:27N 49°01' W 123°09'0 0.0
2015-Mar-17 15:33N 49°01' W 123°09'0 0.0
2015-Mar-17 14:33N 49°01' W 123°09'0 0.0
2015-Mar-17 13:33N 49°01' W 123°09'0 0.0
2015-Mar-17 12:33N 49°01' W 123°09'0 0.0
2015-Mar-17 11:30N 49°01' W 123°09'0 0.0
2015-Mar-17 10:33N 49°01' W 123°09'0 0.0
2015-Mar-17 09:33N 49°01' W 123°09'0 0.0
2015-Mar-17 08:33N 49°01' W 123°09'0 0.0
2015-Mar-17 07:30N 49°01' W 123°09'0 0.0
2015-Mar-17 06:33N 49°01' W 123°09'0 0.0
2015-Mar-17 05:30N 49°01' W 123°09'0 0.0
2015-Mar-17 04:33N 49°01' W 123°09'0 0.0
2015-Mar-17 03:30N 49°01' W 123°09'0 0.0
2015-Mar-17 02:30N 49°01' W 123°09'0 0.0
2015-Mar-17 01:27N 49°01' W 123°09'0 0.0
2015-Mar-17 00:33N 49°01' W 123°09'0 0.0
2015-Mar-16 23:33N 49°01' W 123°09'0 0.0
2015-Mar-16 22:33N 49°01' W 123°09'0 0.0
2015-Mar-16 21:33N 49°01' W 123°09'0 0.0
2015-Mar-16 20:33N 49°01' W 123°09'0 0.0
2015-Mar-16 19:33N 49°01' W 123°09'0 0.0
2015-Mar-16 18:33N 49°01' W 123°09'0 0.0
2015-Mar-16 17:33N 49°01' W 123°09'0 0.0
2015-Mar-16 16:30N 49°01' W 123°09'0 0.0
2015-Mar-16 15:33N 49°01' W 123°09'0 0.0
2015-Mar-16 14:33N 49°01' W 123°09'0 0.0
2015-Mar-16 13:33N 49°01' W 123°09'0 0.0
2015-Mar-16 12:33N 49°01' W 123°09'0 0.0
2015-Mar-16 11:33N 49°01' W 123°09'0 0.0
2015-Mar-16 10:33N 49°01' W 123°09'0 0.0
2015-Mar-16 09:33N 49°01' W 123°09'0 0.0
2015-Mar-16 08:33N 49°01' W 123°09'0 0.0
2015-Mar-16 07:33N 49°01' W 123°09'0 0.0
2015-Mar-16 06:33N 49°01' W 123°09'0 0.0
2015-Mar-16 05:33N 49°01' W 123°09'0 0.0
2015-Mar-16 04:33N 49°01' W 123°09'2 2.3
2015-Mar-16 03:33N 49°00' W 123°13'1010.3
2015-Mar-16 02:34N 49°08' W 123°23'1212.4
2015-Mar-16 01:33N 49°19' W 123°14'7 6.6
2015-Mar-16 00:33N 49°18' W 123°04'0 0.1
2015-Mar-15 23:33N 49°18' W 123°04'0 0.2
2015-Mar-15 22:33N 49°18' W 123°04'0 0.1
2015-Mar-15 21:33N 49°18' W 123°04'0 0.0
2015-Mar-15 20:33N 49°18' W 123°04'0 0.0
2015-Mar-15 19:33N 49°18' W 123°04'0 0.0
2015-Mar-15 18:33N 49°18' W 123°04'0 0.1
2015-Mar-15 17:33N 49°18' W 123°04'0 0.1
2015-Mar-15 16:33N 49°18' W 123°04'0 0.1
2015-Mar-15 15:33N 49°18' W 123°04'0 0.0
2015-Mar-15 14:33N 49°18' W 123°04'0 0.0
2015-Mar-15 13:33N 49°18' W 123°04'0 0.0
2015-Mar-15 12:33N 49°18' W 123°04'0 0.1
2015-Mar-15 11:33N 49°18' W 123°04'0 0.2
2015-Mar-15 10:33N 49°18' W 123°04'0 0.0
2015-Mar-15 09:33N 49°18' W 123°04'0 0.0
2015-Mar-15 08:33N 49°18' W 123°04'0 0.0
2015-Mar-15 07:33N 49°18' W 123°04'0 0.1
2015-Mar-15 06:33N 49°18' W 123°04'0 0.1
2015-Mar-15 05:33N 49°18' W 123°04'0 0.0
2015-Mar-15 04:33N 49°18' W 123°04'0 0.2
2015-Mar-15 03:33N 49°18' W 123°04'0 0.0
2015-Mar-15 02:33N 49°18' W 123°04'0 0.0
2015-Mar-15 01:33N 49°18' W 123°04'0 0.0
2015-Mar-15 00:33N 49°18' W 123°04'0 0.0
2015-Mar-14 23:33N 49°18' W 123°04'0 0.1
2015-Mar-14 22:33N 49°18' W 123°04'0 0.1
2015-Mar-14 21:33N 49°18' W 123°04'0 0.1
2015-Mar-14 20:33N 49°18' W 123°04'0 0.1
2015-Mar-14 19:33N 49°18' W 123°04'0 0.1
2015-Mar-14 18:33N 49°18' W 123°04'4 4.0
2015-Mar-14 17:33N 49°19' W 123°10'1212.1
2015-Mar-14 16:33N 49°18' W 123°29'1313.0
2015-Mar-14 15:33N 49°15' W 123°48'5 5.4
2015-Mar-14 14:33N 49°11' W 123°54'0 0.0
2015-Mar-14 13:33N 49°11' W 123°54'0 0.0
2015-Mar-14 12:33N 49°11' W 123°54'0 0.0
2015-Mar-14 11:30N 49°11' W 123°54'0 0.0
2015-Mar-14 10:30N 49°11' W 123°54'0 0.0
2015-Mar-14 09:33N 49°11' W 123°54'0 0.1
2015-Mar-14 08:33N 49°11' W 123°54'0 0.0
2015-Mar-14 07:33N 49°11' W 123°54'0 0.0
2015-Mar-14 06:33N 49°11' W 123°54'0 0.0
2015-Mar-14 05:33N 49°11' W 123°54'0 0.0
2015-Mar-14 04:33N 49°11' W 123°54'0 0.0
2015-Mar-14 03:30N 49°11' W 123°54'0 0.0
2015-Mar-14 02:33N 49°11' W 123°54'0 0.0
2015-Mar-14 01:33N 49°11' W 123°54'0 0.0
2015-Mar-14 00:33N 49°11' W 123°54'0 0.0
2015-Mar-13 23:33N 49°11' W 123°54'0 0.0
2015-Mar-13 22:27N 49°11' W 123°54'0 0.1
2015-Mar-13 21:30N 49°11' W 123°54'0 0.0
2015-Mar-13 20:33N 49°11' W 123°54'0 0.0
2015-Mar-13 19:33N 49°11' W 123°54'0 0.0
2015-Mar-13 18:33N 49°11' W 123°54'0 0.0
2015-Mar-13 17:33N 49°11' W 123°54'0 0.1
2015-Mar-13 16:30N 49°11' W 123°54'0 0.0
2015-Mar-13 15:30N 49°11' W 123°54'0 0.1
2015-Mar-13 14:33N 49°11' W 123°54'0 0.0
2015-Mar-13 13:30N 49°11' W 123°54'0 0.1
2015-Mar-13 12:30N 49°11' W 123°54'0 0.0
2015-Mar-13 11:30N 49°11' W 123°54'0 0.0
2015-Mar-13 10:33N 49°11' W 123°54'0 0.0
2015-Mar-13 09:30N 49°11' W 123°54'0 0.0
2015-Mar-13 08:30N 49°11' W 123°54'0 0.0
2015-Mar-13 07:33N 49°11' W 123°54'0 0.0
2015-Mar-13 06:33N 49°11' W 123°54'0 0.0
2015-Mar-13 05:30N 49°11' W 123°54'0 0.0
2015-Mar-13 04:33N 49°11' W 123°54'0 0.0
2015-Mar-13 03:33N 49°11' W 123°54'0 0.0
2015-Mar-13 02:33N 49°11' W 123°54'0 0.1
2015-Mar-13 01:30N 49°11' W 123°54'0 0.0
2015-Mar-13 00:33N 49°11' W 123°54'0 0.0
2015-Mar-12 23:33N 49°11' W 123°54'0 0.0
2015-Mar-12 22:33N 49°11' W 123°54'0 0.0
2015-Mar-12 21:30N 49°11' W 123°54'0 0.0
2015-Mar-12 20:33N 49°11' W 123°54'0 0.0
2015-Mar-12 19:33N 49°11' W 123°54'0 0.0
2015-Mar-12 18:33N 49°11' W 123°54'0 0.0
2015-Mar-12 17:33N 49°11' W 123°54'0 0.0
2015-Mar-12 16:33N 49°11' W 123°54'0 0.0
2015-Mar-12 15:33N 49°11' W 123°54'0 0.0
2015-Mar-12 14:33N 49°11' W 123°54'0 0.0
2015-Mar-12 13:33N 49°11' W 123°54'0 0.0
2015-Mar-12 12:33N 49°11' W 123°54'0 0.0
2015-Mar-12 11:30N 49°11' W 123°54'0 0.0
2015-Mar-12 10:33N 49°11' W 123°54'0 0.0
2015-Mar-12 09:30N 49°11' W 123°54'0 0.0
2015-Mar-12 08:33N 49°11' W 123°54'0 0.0
2015-Mar-12 07:33N 49°11' W 123°54'0 0.0
2015-Mar-12 06:33N 49°11' W 123°54'0 0.0
2015-Mar-12 05:33N 49°11' W 123°54'0 0.0
2015-Mar-12 04:33N 49°11' W 123°54'0 0.0
2015-Mar-12 03:33N 49°11' W 123°54'0 0.0
2015-Mar-12 02:30N 49°11' W 123°54'0 0.0
2015-Mar-12 01:33N 49°11' W 123°54'0 0.0
2015-Mar-12 00:33N 49°11' W 123°54'0 0.0
2015-Mar-11 23:33N 49°11' W 123°54'0 0.0
2015-Mar-11 22:30N 49°11' W 123°54'0 0.0
2015-Mar-11 21:30N 49°11' W 123°54'0 0.0
2015-Mar-11 20:30N 49°11' W 123°54'0 0.0
2015-Mar-11 19:33N 49°11' W 123°54'0 0.0
2015-Mar-11 18:33N 49°11' W 123°54'0 0.1
2015-Mar-11 17:33N 49°11' W 123°54'0 0.1
2015-Mar-11 16:30N 49°11' W 123°54'0 0.1
2015-Mar-11 15:15N 49°11' W 123°54'0 0.1
2015-Mar-11 14:33N 49°11' W 123°54'0 0.0
2015-Mar-11 13:30N 49°11' W 123°54'0 0.1
2015-Mar-11 12:33N 49°11' W 123°54'0 0.0
2015-Mar-11 11:33N 49°11' W 123°54'0 0.0
2015-Mar-11 10:33N 49°11' W 123°54'0 0.1
2015-Mar-11 09:33N 49°11' W 123°54'0 0.2
2015-Mar-11 08:33N 49°11' W 123°54'0 0.1
2015-Mar-11 07:27N 49°11' W 123°54'0 0.0
2015-Mar-11 06:33N 49°11' W 123°54'0 0.1
2015-Mar-11 05:30N 49°11' W 123°54'0 0.1
2015-Mar-11 04:27N 49°11' W 123°54'0 0.1
2015-Mar-11 03:30N 49°11' W 123°54'0 0.0
2015-Mar-11 02:33N 49°11' W 123°54'0 0.0
2015-Mar-11 01:30N 49°11' W 123°54'0 0.0
2015-Mar-11 00:33N 49°11' W 123°54'0 0.0
2015-Mar-10 23:33N 49°11' W 123°54'0 0.1
2015-Mar-10 22:21N 49°11' W 123°54'0 0.1
2015-Mar-10 21:33N 49°11' W 123°54'0 0.0
2015-Mar-10 20:33N 49°11' W 123°54'0 0.1
2015-Mar-10 19:24N 49°11' W 123°54'0 0.0
2015-Mar-10 18:33N 49°11' W 123°54'0 0.0
2015-Mar-10 17:24N 49°11' W 123°54'0 0.0
2015-Mar-10 16:30N 49°11' W 123°54'0 0.1
2015-Mar-10 15:24N 49°11' W 123°54'0 0.0
2015-Mar-10 14:33N 49°11' W 123°54'0 0.1
2015-Mar-10 13:30N 49°11' W 123°54'0 0.1
2015-Mar-10 12:33N 49°11' W 123°54'0 0.1
2015-Mar-10 11:33N 49°11' W 123°54'0 0.0
2015-Mar-10 10:33N 49°11' W 123°54'0 0.0
2015-Mar-10 09:30N 49°11' W 123°54'0 0.1
2015-Mar-10 08:33N 49°11' W 123°54'0 0.1
2015-Mar-10 07:33N 49°11' W 123°54'0 0.1
2015-Mar-10 06:33N 49°11' W 123°54'0 0.0
2015-Mar-10 05:33N 49°11' W 123°54'0 0.0
2015-Mar-10 04:33N 49°11' W 123°54'0 0.0
2015-Mar-10 03:30N 49°11' W 123°54'0 0.0
2015-Mar-10 02:33N 49°11' W 123°54'0 0.0
2015-Mar-10 01:33N 49°11' W 123°54'0 0.0
2015-Mar-10 00:33N 49°11' W 123°54'0 0.1
2015-Mar-09 23:33N 49°11' W 123°54'0 0.1
2015-Mar-09 22:30N 49°11' W 123°54'0 0.1
2015-Mar-09 21:33N 49°11' W 123°54'0 0.0
2015-Mar-09 20:30N 49°11' W 123°54'0 0.1
2015-Mar-09 19:33N 49°11' W 123°54'0 0.1
2015-Mar-09 18:33N 49°11' W 123°54'0 0.1
2015-Mar-09 17:15N 49°11' W 123°54'0 0.1
2015-Mar-09 16:27N 49°11' W 123°54'0 0.0
2015-Mar-09 15:30N 49°11' W 123°54'0 0.1
2015-Mar-09 14:33N 49°11' W 123°54'0 0.1
2015-Mar-09 13:33N 49°11' W 123°54'0 0.1
2015-Mar-09 12:33N 49°11' W 123°54'0 0.0
2015-Mar-09 11:33N 49°11' W 123°54'0 0.0
2015-Mar-09 10:30N 49°11' W 123°54'0 0.0
2015-Mar-09 09:33N 49°11' W 123°54'0 0.0
2015-Mar-09 08:33N 49°11' W 123°54'0 0.0
2015-Mar-09 07:33N 49°11' W 123°54'0 0.1
2015-Mar-09 06:33N 49°11' W 123°54'0 0.2
2015-Mar-09 05:33N 49°11' W 123°54'0 0.0
2015-Mar-09 04:33N 49°11' W 123°54'0 0.0
2015-Mar-09 03:30N 49°11' W 123°54'0 0.0
2015-Mar-09 02:30N 49°11' W 123°54'0 0.0
2015-Mar-09 01:33N 49°11' W 123°54'0 0.0
2015-Mar-09 00:24N 49°11' W 123°54'0 0.1
2015-Mar-08 23:33N 49°11' W 123°54'0 0.0
2015-Mar-08 22:33N 49°11' W 123°54'0 0.0
2015-Mar-08 21:33N 49°11' W 123°54'0 0.0
2015-Mar-08 20:33N 49°11' W 123°54'0 0.0
2015-Mar-08 19:30N 49°11' W 123°54'0 0.0
2015-Mar-08 18:33N 49°11' W 123°54'0 0.0
2015-Mar-08 17:24N 49°11' W 123°54'0 0.0
2015-Mar-08 16:30N 49°11' W 123°54'0 0.0
2015-Mar-08 15:33N 49°11' W 123°54'0 0.0
2015-Mar-08 14:30N 49°11' W 123°54'0 0.0
2015-Mar-08 13:33N 49°11' W 123°54'0 0.0
2015-Mar-08 12:30N 49°11' W 123°54'0 0.1
2015-Mar-08 11:33N 49°11' W 123°54'0 0.1
2015-Mar-08 10:24N 49°11' W 123°54'0 0.0
2015-Mar-08 09:33N 49°11' W 123°54'0 0.0
2015-Mar-08 08:33N 49°11' W 123°54'0 0.0
2015-Mar-08 07:33N 49°11' W 123°54'  

Dump ship's entire track history